sensor_id;sensor_type;location;lat;lon;timestamp;P1;durP1;ratioP1;P2;durP2;ratioP2
10880;SDS011;5493;48.884;8.338;2023-11-18T00:00:19;6.07;;;4.47;;
10880;SDS011;5493;48.884;8.338;2023-11-18T00:02:45;5.50;;;3.40;;
10880;SDS011;5493;48.884;8.338;2023-11-18T00:05:12;4.63;;;3.20;;
10880;SDS011;5493;48.884;8.338;2023-11-18T00:07:39;3.40;;;2.73;;
10880;SDS011;5493;48.884;8.338;2023-11-18T00:10:06;3.87;;;2.60;;
10880;SDS011;5493;48.884;8.338;2023-11-18T00:12:34;4.33;;;3.23;;
10880;SDS011;5493;48.884;8.338;2023-11-18T00:15:01;19.73;;;12.20;;
10880;SDS011;5493;48.884;8.338;2023-11-18T00:17:29;9.23;;;6.33;;
10880;SDS011;5493;48.884;8.338;2023-11-18T00:19:56;7.97;;;4.07;;
10880;SDS011;5493;48.884;8.338;2023-11-18T00:22:22;4.10;;;2.80;;
10880;SDS011;5493;48.884;8.338;2023-11-18T00:24:49;4.10;;;2.87;;
10880;SDS011;5493;48.884;8.338;2023-11-18T00:27:15;4.43;;;2.40;;
10880;SDS011;5493;48.884;8.338;2023-11-18T00:29:43;4.07;;;2.60;;
10880;SDS011;5493;48.884;8.338;2023-11-18T00:32:10;3.87;;;2.50;;
10880;SDS011;5493;48.884;8.338;2023-11-18T00:34:36;2.63;;;1.87;;
10880;SDS011;5493;48.884;8.338;2023-11-18T00:37:03;5.47;;;2.70;;
10880;SDS011;5493;48.884;8.338;2023-11-18T00:39:29;4.53;;;2.33;;
10880;SDS011;5493;48.884;8.338;2023-11-18T00:41:56;5.47;;;2.50;;
10880;SDS011;5493;48.884;8.338;2023-11-18T00:44:22;3.33;;;2.40;;
10880;SDS011;5493;48.884;8.338;2023-11-18T00:46:50;3.67;;;2.33;;
10880;SDS011;5493;48.884;8.338;2023-11-18T00:49:17;3.60;;;2.67;;
10880;SDS011;5493;48.884;8.338;2023-11-18T00:51:43;2.80;;;2.00;;
10880;SDS011;5493;48.884;8.338;2023-11-18T00:54:10;3.37;;;2.40;;
10880;SDS011;5493;48.884;8.338;2023-11-18T00:56:37;3.07;;;2.47;;
10880;SDS011;5493;48.884;8.338;2023-11-18T00:59:04;2.67;;;2.27;;
10880;SDS011;5493;48.884;8.338;2023-11-18T01:01:31;4.70;;;2.83;;
10880;SDS011;5493;48.884;8.338;2023-11-18T01:03:59;4.27;;;2.67;;
10880;SDS011;5493;48.884;8.338;2023-11-18T01:06:26;4.60;;;2.83;;
10880;SDS011;5493;48.884;8.338;2023-11-18T01:08:52;5.37;;;2.27;;
10880;SDS011;5493;48.884;8.338;2023-11-18T01:11:19;4.07;;;1.90;;
10880;SDS011;5493;48.884;8.338;2023-11-18T01:13:47;6.00;;;2.80;;
10880;SDS011;5493;48.884;8.338;2023-11-18T01:16:14;4.27;;;2.67;;
10880;SDS011;5493;48.884;8.338;2023-11-18T01:18:41;5.53;;;2.80;;
10880;SDS011;5493;48.884;8.338;2023-11-18T01:21:08;5.27;;;2.90;;
10880;SDS011;5493;48.884;8.338;2023-11-18T01:23:36;5.73;;;2.07;;
10880;SDS011;5493;48.884;8.338;2023-11-18T01:26:03;3.30;;;1.93;;
10880;SDS011;5493;48.884;8.338;2023-11-18T01:28:30;3.80;;;2.40;;
10880;SDS011;5493;48.884;8.338;2023-11-18T01:30:58;2.63;;;1.90;;
10880;SDS011;5493;48.884;8.338;2023-11-18T01:33:24;4.27;;;2.20;;
10880;SDS011;5493;48.884;8.338;2023-11-18T01:35:51;5.60;;;2.73;;
10880;SDS011;5493;48.884;8.338;2023-11-18T01:38:20;9.30;;;2.70;;
10880;SDS011;5493;48.884;8.338;2023-11-18T01:40:46;5.33;;;2.80;;
10880;SDS011;5493;48.884;8.338;2023-11-18T01:43:13;5.50;;;2.80;;
10880;SDS011;5493;48.884;8.338;2023-11-18T01:45:40;3.80;;;2.10;;
10880;SDS011;5493;48.884;8.338;2023-11-18T01:48:06;4.43;;;2.70;;
10880;SDS011;5493;48.884;8.338;2023-11-18T01:50:34;3.20;;;1.90;;
10880;SDS011;5493;48.884;8.338;2023-11-18T01:53:02;2.40;;;1.90;;
10880;SDS011;5493;48.884;8.338;2023-11-18T01:55:30;2.97;;;2.33;;
10880;SDS011;5493;48.884;8.338;2023-11-18T01:57:59;3.10;;;1.87;;
10880;SDS011;5493;48.884;8.338;2023-11-18T02:00:32;5.17;;;2.90;;
10880;SDS011;5493;48.884;8.338;2023-11-18T02:03:00;3.27;;;2.23;;
10880;SDS011;5493;48.884;8.338;2023-11-18T02:05:27;3.40;;;2.10;;
10880;SDS011;5493;48.884;8.338;2023-11-18T02:07:54;4.43;;;2.30;;
10880;SDS011;5493;48.884;8.338;2023-11-18T02:10:22;3.77;;;2.10;;
10880;SDS011;5493;48.884;8.338;2023-11-18T02:12:59;6.77;;;3.20;;
10880;SDS011;5493;48.884;8.338;2023-11-18T02:15:31;7.07;;;3.23;;
10880;SDS011;5493;48.884;8.338;2023-11-18T02:18:01;8.70;;;3.43;;
10880;SDS011;5493;48.884;8.338;2023-11-18T02:20:30;7.00;;;3.53;;
10880;SDS011;5493;48.884;8.338;2023-11-18T02:22:57;7.23;;;3.40;;
10880;SDS011;5493;48.884;8.338;2023-11-18T02:25:24;7.93;;;3.57;;
10880;SDS011;5493;48.884;8.338;2023-11-18T02:27:55;3.20;;;2.43;;
10880;SDS011;5493;48.884;8.338;2023-11-18T02:30:21;4.67;;;2.60;;
10880;SDS011;5493;48.884;8.338;2023-11-18T02:32:50;5.47;;;2.33;;
10880;SDS011;5493;48.884;8.338;2023-11-18T02:35:24;4.47;;;2.20;;
10880;SDS011;5493;48.884;8.338;2023-11-18T02:37:55;3.17;;;1.80;;
10880;SDS011;5493;48.884;8.338;2023-11-18T02:40:26;2.10;;;1.53;;
10880;SDS011;5493;48.884;8.338;2023-11-18T02:42:57;2.00;;;1.70;;
10880;SDS011;5493;48.884;8.338;2023-11-18T02:45:25;2.03;;;1.73;;
10880;SDS011;5493;48.884;8.338;2023-11-18T02:47:53;3.90;;;1.83;;
10880;SDS011;5493;48.884;8.338;2023-11-18T02:50:22;2.10;;;1.60;;
10880;SDS011;5493;48.884;8.338;2023-11-18T02:52:49;1.87;;;1.67;;
10880;SDS011;5493;48.884;8.338;2023-11-18T02:55:15;1.90;;;1.73;;
10880;SDS011;5493;48.884;8.338;2023-11-18T02:57:42;3.53;;;1.93;;
10880;SDS011;5493;48.884;8.338;2023-11-18T03:00:10;2.37;;;1.77;;
10880;SDS011;5493;48.884;8.338;2023-11-18T03:02:43;3.83;;;2.03;;
10880;SDS011;5493;48.884;8.338;2023-11-18T03:05:11;2.20;;;1.83;;
10880;SDS011;5493;48.884;8.338;2023-11-18T03:07:37;3.30;;;1.60;;
10880;SDS011;5493;48.884;8.338;2023-11-18T03:10:04;3.17;;;1.63;;
10880;SDS011;5493;48.884;8.338;2023-11-18T03:12:36;3.20;;;1.70;;
10880;SDS011;5493;48.884;8.338;2023-11-18T03:15:03;2.00;;;1.47;;
10880;SDS011;5493;48.884;8.338;2023-11-18T03:17:32;2.30;;;1.70;;
10880;SDS011;5493;48.884;8.338;2023-11-18T03:19:58;3.53;;;1.70;;
10880;SDS011;5493;48.884;8.338;2023-11-18T03:22:25;2.43;;;1.53;;
10880;SDS011;5493;48.884;8.338;2023-11-18T03:24:51;3.50;;;2.07;;
10880;SDS011;5493;48.884;8.338;2023-11-18T03:27:18;3.70;;;2.00;;
10880;SDS011;5493;48.884;8.338;2023-11-18T03:29:44;1.77;;;1.60;;
10880;SDS011;5493;48.884;8.338;2023-11-18T03:32:11;4.37;;;2.17;;
10880;SDS011;5493;48.884;8.338;2023-11-18T03:34:39;2.27;;;2.00;;
10880;SDS011;5493;48.884;8.338;2023-11-18T03:37:05;2.83;;;1.80;;
10880;SDS011;5493;48.884;8.338;2023-11-18T03:39:32;2.23;;;1.77;;
10880;SDS011;5493;48.884;8.338;2023-11-18T03:41:59;2.83;;;1.70;;
10880;SDS011;5493;48.884;8.338;2023-11-18T03:44:25;2.10;;;1.60;;
10880;SDS011;5493;48.884;8.338;2023-11-18T03:46:52;2.73;;;1.60;;
10880;SDS011;5493;48.884;8.338;2023-11-18T03:49:18;2.10;;;1.73;;
10880;SDS011;5493;48.884;8.338;2023-11-18T03:51:46;1.63;;;1.47;;
10880;SDS011;5493;48.884;8.338;2023-11-18T03:54:13;2.10;;;1.77;;
10880;SDS011;5493;48.884;8.338;2023-11-18T03:56:39;3.70;;;1.70;;
10880;SDS011;5493;48.884;8.338;2023-11-18T03:59:06;3.20;;;2.07;;
10880;SDS011;5493;48.884;8.338;2023-11-18T04:01:34;1.77;;;1.30;;
10880;SDS011;5493;48.884;8.338;2023-11-18T04:04:01;1.77;;;1.60;;
10880;SDS011;5493;48.884;8.338;2023-11-18T04:06:29;2.00;;;1.60;;
10880;SDS011;5493;48.884;8.338;2023-11-18T04:08:57;1.90;;;1.50;;
10880;SDS011;5493;48.884;8.338;2023-11-18T04:11:23;2.10;;;1.50;;
10880;SDS011;5493;48.884;8.338;2023-11-18T04:13:50;3.23;;;1.70;;
10880;SDS011;5493;48.884;8.338;2023-11-18T04:16:17;1.67;;;1.43;;
10880;SDS011;5493;48.884;8.338;2023-11-18T04:18:44;2.47;;;1.60;;
10880;SDS011;5493;48.884;8.338;2023-11-18T04:21:12;1.90;;;1.40;;
10880;SDS011;5493;48.884;8.338;2023-11-18T04:23:39;1.50;;;1.40;;
10880;SDS011;5493;48.884;8.338;2023-11-18T04:26:08;2.70;;;1.40;;
10880;SDS011;5493;48.884;8.338;2023-11-18T04:28:34;1.63;;;1.27;;
10880;SDS011;5493;48.884;8.338;2023-11-18T04:31:02;3.87;;;1.23;;
10880;SDS011;5493;48.884;8.338;2023-11-18T04:33:30;1.60;;;1.50;;
10880;SDS011;5493;48.884;8.338;2023-11-18T04:35:57;3.00;;;1.47;;
10880;SDS011;5493;48.884;8.338;2023-11-18T04:38:23;1.27;;;1.17;;
10880;SDS011;5493;48.884;8.338;2023-11-18T04:40:51;1.07;;;1.03;;
10880;SDS011;5493;48.884;8.338;2023-11-18T04:43:20;3.40;;;1.37;;
10880;SDS011;5493;48.884;8.338;2023-11-18T04:45:47;2.23;;;1.20;;
10880;SDS011;5493;48.884;8.338;2023-11-18T04:48:13;1.70;;;1.23;;
10880;SDS011;5493;48.884;8.338;2023-11-18T04:50:40;1.63;;;1.40;;
10880;SDS011;5493;48.884;8.338;2023-11-18T04:53:08;4.03;;;1.80;;
10880;SDS011;5493;48.884;8.338;2023-11-18T04:55:36;2.10;;;0.97;;
10880;SDS011;5493;48.884;8.338;2023-11-18T04:58:02;1.43;;;1.20;;
10880;SDS011;5493;48.884;8.338;2023-11-18T05:00:32;1.57;;;1.03;;
10880;SDS011;5493;48.884;8.338;2023-11-18T05:02:58;1.30;;;1.20;;
10880;SDS011;5493;48.884;8.338;2023-11-18T05:05:25;1.90;;;1.50;;
10880;SDS011;5493;48.884;8.338;2023-11-18T05:07:51;2.67;;;1.60;;
10880;SDS011;5493;48.884;8.338;2023-11-18T05:10:18;7.27;;;1.90;;
10880;SDS011;5493;48.884;8.338;2023-11-18T05:12:44;2.57;;;1.70;;
10880;SDS011;5493;48.884;8.338;2023-11-18T05:15:18;2.20;;;1.50;;
10880;SDS011;5493;48.884;8.338;2023-11-18T05:17:46;2.03;;;1.70;;
10880;SDS011;5493;48.884;8.338;2023-11-18T05:20:12;3.63;;;2.63;;
10880;SDS011;5493;48.884;8.338;2023-11-18T05:22:39;5.77;;;3.17;;
10880;SDS011;5493;48.884;8.338;2023-11-18T05:25:06;2.80;;;2.33;;
10880;SDS011;5493;48.884;8.338;2023-11-18T05:27:34;3.77;;;2.20;;
10880;SDS011;5493;48.884;8.338;2023-11-18T05:30:01;3.50;;;2.23;;
10880;SDS011;5493;48.884;8.338;2023-11-18T05:32:30;3.50;;;2.30;;
10880;SDS011;5493;48.884;8.338;2023-11-18T05:34:58;2.00;;;1.80;;
10880;SDS011;5493;48.884;8.338;2023-11-18T05:37:25;3.40;;;2.13;;
10880;SDS011;5493;48.884;8.338;2023-11-18T05:39:54;6.67;;;3.60;;
10880;SDS011;5493;48.884;8.338;2023-11-18T05:42:31;6.10;;;3.47;;
10880;SDS011;5493;48.884;8.338;2023-11-18T05:44:57;4.90;;;3.57;;
10880;SDS011;5493;48.884;8.338;2023-11-18T05:47:24;3.00;;;2.57;;
10880;SDS011;5493;48.884;8.338;2023-11-18T05:49:51;2.60;;;2.20;;
10880;SDS011;5493;48.884;8.338;2023-11-18T05:52:19;2.63;;;1.90;;
10880;SDS011;5493;48.884;8.338;2023-11-18T05:54:47;1.60;;;1.40;;
10880;SDS011;5493;48.884;8.338;2023-11-18T05:57:14;5.57;;;1.60;;
10880;SDS011;5493;48.884;8.338;2023-11-18T05:59:41;2.77;;;2.10;;
10880;SDS011;5493;48.884;8.338;2023-11-18T06:02:08;1.50;;;1.37;;
10880;SDS011;5493;48.884;8.338;2023-11-18T06:04:38;2.47;;;1.67;;
10880;SDS011;5493;48.884;8.338;2023-11-18T06:07:04;3.60;;;1.87;;
10880;SDS011;5493;48.884;8.338;2023-11-18T06:09:32;3.93;;;2.40;;
10880;SDS011;5493;48.884;8.338;2023-11-18T06:11:59;6.13;;;3.67;;
10880;SDS011;5493;48.884;8.338;2023-11-18T06:14:25;7.50;;;3.70;;
10880;SDS011;5493;48.884;8.338;2023-11-18T06:16:52;5.87;;;3.80;;
10880;SDS011;5493;48.884;8.338;2023-11-18T06:19:19;4.73;;;3.20;;
10880;SDS011;5493;48.884;8.338;2023-11-18T06:21:46;2.73;;;2.40;;
10880;SDS011;5493;48.884;8.338;2023-11-18T06:24:12;3.83;;;2.70;;
10880;SDS011;5493;48.884;8.338;2023-11-18T06:26:41;3.60;;;2.43;;
10880;SDS011;5493;48.884;8.338;2023-11-18T06:29:07;2.97;;;2.03;;
10880;SDS011;5493;48.884;8.338;2023-11-18T06:31:34;2.27;;;1.57;;
10880;SDS011;5493;48.884;8.338;2023-11-18T06:34:00;3.43;;;2.30;;
10880;SDS011;5493;48.884;8.338;2023-11-18T06:36:28;5.23;;;2.27;;
10880;SDS011;5493;48.884;8.338;2023-11-18T06:38:56;4.20;;;2.37;;
10880;SDS011;5493;48.884;8.338;2023-11-18T06:41:24;3.77;;;2.43;;
10880;SDS011;5493;48.884;8.338;2023-11-18T06:43:52;4.60;;;2.17;;
10880;SDS011;5493;48.884;8.338;2023-11-18T06:46:26;3.00;;;1.90;;
10880;SDS011;5493;48.884;8.338;2023-11-18T06:48:57;6.50;;;3.40;;
10880;SDS011;5493;48.884;8.338;2023-11-18T06:51:24;4.27;;;3.13;;
10880;SDS011;5493;48.884;8.338;2023-11-18T06:53:52;19.20;;;9.03;;
10880;SDS011;5493;48.884;8.338;2023-11-18T06:56:20;8.20;;;5.20;;
10880;SDS011;5493;48.884;8.338;2023-11-18T06:58:46;7.30;;;3.90;;
10880;SDS011;5493;48.884;8.338;2023-11-18T07:01:14;2.67;;;1.90;;
10880;SDS011;5493;48.884;8.338;2023-11-18T07:03:41;2.13;;;1.40;;
10880;SDS011;5493;48.884;8.338;2023-11-18T07:06:08;1.50;;;1.40;;
10880;SDS011;5493;48.884;8.338;2023-11-18T07:08:34;1.40;;;1.30;;
10880;SDS011;5493;48.884;8.338;2023-11-18T07:11:01;1.50;;;1.10;;
10880;SDS011;5493;48.884;8.338;2023-11-18T07:13:28;0.97;;;0.97;;
10880;SDS011;5493;48.884;8.338;2023-11-18T07:15:55;1.43;;;1.33;;
10880;SDS011;5493;48.884;8.338;2023-11-18T07:18:23;1.67;;;1.30;;
10880;SDS011;5493;48.884;8.338;2023-11-18T07:20:51;1.10;;;0.93;;
10880;SDS011;5493;48.884;8.338;2023-11-18T07:23:17;1.10;;;1.00;;
10880;SDS011;5493;48.884;8.338;2023-11-18T07:25:44;2.10;;;1.30;;
10880;SDS011;5493;48.884;8.338;2023-11-18T07:28:10;1.50;;;1.33;;
10880;SDS011;5493;48.884;8.338;2023-11-18T07:30:39;3.83;;;1.60;;
10880;SDS011;5493;48.884;8.338;2023-11-18T07:33:06;2.13;;;1.53;;
10880;SDS011;5493;48.884;8.338;2023-11-18T07:35:34;7.53;;;4.33;;
10880;SDS011;5493;48.884;8.338;2023-11-18T07:38:01;6.57;;;3.73;;
10880;SDS011;5493;48.884;8.338;2023-11-18T07:40:28;5.40;;;3.50;;
10880;SDS011;5493;48.884;8.338;2023-11-18T07:42:55;3.57;;;2.73;;
10880;SDS011;5493;48.884;8.338;2023-11-18T07:45:21;4.87;;;3.00;;
10880;SDS011;5493;48.884;8.338;2023-11-18T07:47:48;3.17;;;2.50;;
10880;SDS011;5493;48.884;8.338;2023-11-18T07:50:16;2.97;;;2.70;;
10880;SDS011;5493;48.884;8.338;2023-11-18T07:52:46;6.00;;;3.17;;
10880;SDS011;5493;48.884;8.338;2023-11-18T07:55:13;4.03;;;2.97;;
10880;SDS011;5493;48.884;8.338;2023-11-18T07:57:39;5.30;;;2.77;;
10880;SDS011;5493;48.884;8.338;2023-11-18T08:00:07;22.67;;;8.10;;
10880;SDS011;5493;48.884;8.338;2023-11-18T08:02:35;19.47;;;5.67;;
10880;SDS011;5493;48.884;8.338;2023-11-18T08:05:02;7.47;;;4.37;;
10880;SDS011;5493;48.884;8.338;2023-11-18T08:07:31;9.67;;;6.93;;
10880;SDS011;5493;48.884;8.338;2023-11-18T08:10:00;7.43;;;5.43;;
10880;SDS011;5493;48.884;8.338;2023-11-18T08:12:29;5.23;;;3.57;;
10880;SDS011;5493;48.884;8.338;2023-11-18T08:14:55;32.87;;;11.57;;
10880;SDS011;5493;48.884;8.338;2023-11-18T08:17:23;40.47;;;15.13;;
10880;SDS011;5493;48.884;8.338;2023-11-18T08:19:50;28.63;;;12.00;;
10880;SDS011;5493;48.884;8.338;2023-11-18T08:22:17;18.77;;;8.37;;
10880;SDS011;5493;48.884;8.338;2023-11-18T08:24:48;8.73;;;4.50;;
10880;SDS011;5493;48.884;8.338;2023-11-18T08:27:16;6.13;;;4.10;;
10880;SDS011;5493;48.884;8.338;2023-11-18T08:29:43;8.47;;;3.67;;
10880;SDS011;5493;48.884;8.338;2023-11-18T08:32:11;22.97;;;10.60;;
10880;SDS011;5493;48.884;8.338;2023-11-18T08:34:38;13.17;;;7.67;;
10880;SDS011;5493;48.884;8.338;2023-11-18T08:37:05;14.20;;;7.63;;
10880;SDS011;5493;48.884;8.338;2023-11-18T08:39:32;12.30;;;6.30;;
10880;SDS011;5493;48.884;8.338;2023-11-18T08:41:59;6.83;;;4.57;;
10880;SDS011;5493;48.884;8.338;2023-11-18T08:44:27;10.63;;;6.23;;
10880;SDS011;5493;48.884;8.338;2023-11-18T08:46:53;7.13;;;4.37;;
10880;SDS011;5493;48.884;8.338;2023-11-18T08:49:20;7.23;;;4.53;;
10880;SDS011;5493;48.884;8.338;2023-11-18T08:51:47;7.53;;;4.90;;
10880;SDS011;5493;48.884;8.338;2023-11-18T08:54:14;8.17;;;4.40;;
10880;SDS011;5493;48.884;8.338;2023-11-18T08:56:50;8.23;;;4.83;;
10880;SDS011;5493;48.884;8.338;2023-11-18T08:59:17;6.47;;;4.07;;
10880;SDS011;5493;48.884;8.338;2023-11-18T09:01:51;5.57;;;4.07;;
10880;SDS011;5493;48.884;8.338;2023-11-18T09:04:20;7.20;;;4.33;;
10880;SDS011;5493;48.884;8.338;2023-11-18T09:06:48;7.53;;;4.30;;
10880;SDS011;5493;48.884;8.338;2023-11-18T09:09:16;5.30;;;4.00;;
10880;SDS011;5493;48.884;8.338;2023-11-18T09:11:51;5.93;;;4.20;;
10880;SDS011;5493;48.884;8.338;2023-11-18T09:14:18;5.73;;;3.93;;
10880;SDS011;5493;48.884;8.338;2023-11-18T09:16:45;5.97;;;4.33;;
10880;SDS011;5493;48.884;8.338;2023-11-18T09:19:13;6.47;;;3.93;;
10880;SDS011;5493;48.884;8.338;2023-11-18T09:21:42;5.67;;;3.90;;
10880;SDS011;5493;48.884;8.338;2023-11-18T09:24:09;5.53;;;3.93;;
10880;SDS011;5493;48.884;8.338;2023-11-18T09:26:38;6.93;;;4.97;;
10880;SDS011;5493;48.884;8.338;2023-11-18T09:29:04;5.33;;;3.97;;
10880;SDS011;5493;48.884;8.338;2023-11-18T09:31:33;5.73;;;3.73;;
10880;SDS011;5493;48.884;8.338;2023-11-18T09:34:01;5.77;;;3.43;;
10880;SDS011;5493;48.884;8.338;2023-11-18T09:36:32;4.77;;;3.40;;
10880;SDS011;5493;48.884;8.338;2023-11-18T09:39:00;5.50;;;3.37;;
10880;SDS011;5493;48.884;8.338;2023-11-18T09:41:28;4.80;;;3.07;;
10880;SDS011;5493;48.884;8.338;2023-11-18T09:43:55;4.60;;;3.30;;
10880;SDS011;5493;48.884;8.338;2023-11-18T09:46:27;4.73;;;3.57;;
10880;SDS011;5493;48.884;8.338;2023-11-18T09:48:59;9.67;;;4.50;;
10880;SDS011;5493;48.884;8.338;2023-11-18T09:51:42;5.73;;;3.37;;
10880;SDS011;5493;48.884;8.338;2023-11-18T09:54:12;7.13;;;3.73;;
10880;SDS011;5493;48.884;8.338;2023-11-18T09:56:50;5.93;;;3.83;;
10880;SDS011;5493;48.884;8.338;2023-11-18T09:59:23;5.17;;;3.40;;
10880;SDS011;5493;48.884;8.338;2023-11-18T10:01:59;4.57;;;2.93;;
10880;SDS011;5493;48.884;8.338;2023-11-18T10:04:29;4.23;;;2.73;;
10880;SDS011;5493;48.884;8.338;2023-11-18T10:06:58;3.77;;;3.13;;
10880;SDS011;5493;48.884;8.338;2023-11-18T10:09:27;5.80;;;3.47;;
10880;SDS011;5493;48.884;8.338;2023-11-18T10:11:54;12.43;;;6.00;;
10880;SDS011;5493;48.884;8.338;2023-11-18T10:14:25;23.37;;;9.67;;
10880;SDS011;5493;48.884;8.338;2023-11-18T10:16:52;12.33;;;6.27;;
10880;SDS011;5493;48.884;8.338;2023-11-18T10:19:19;7.77;;;4.43;;
10880;SDS011;5493;48.884;8.338;2023-11-18T10:21:46;10.03;;;3.57;;
10880;SDS011;5493;48.884;8.338;2023-11-18T10:24:15;3.37;;;2.63;;
10880;SDS011;5493;48.884;8.338;2023-11-18T10:26:44;2.90;;;2.47;;
10880;SDS011;5493;48.884;8.338;2023-11-18T10:29:13;3.43;;;2.77;;
10880;SDS011;5493;48.884;8.338;2023-11-18T10:31:43;3.83;;;2.50;;
10880;SDS011;5493;48.884;8.338;2023-11-18T10:34:11;2.70;;;2.20;;
10880;SDS011;5493;48.884;8.338;2023-11-18T10:36:40;4.40;;;2.30;;
10880;SDS011;5493;48.884;8.338;2023-11-18T10:39:10;3.60;;;2.87;;
10880;SDS011;5493;48.884;8.338;2023-11-18T10:41:43;3.37;;;2.67;;
10880;SDS011;5493;48.884;8.338;2023-11-18T10:44:12;2.60;;;2.10;;
10880;SDS011;5493;48.884;8.338;2023-11-18T10:46:40;4.77;;;2.33;;
10880;SDS011;5493;48.884;8.338;2023-11-18T10:49:07;5.20;;;2.30;;
10880;SDS011;5493;48.884;8.338;2023-11-18T10:51:35;3.20;;;2.13;;
10880;SDS011;5493;48.884;8.338;2023-11-18T10:54:04;4.50;;;2.73;;
10880;SDS011;5493;48.884;8.338;2023-11-18T10:56:40;4.53;;;3.40;;
10880;SDS011;5493;48.884;8.338;2023-11-18T10:59:14;4.00;;;2.37;;
10880;SDS011;5493;48.884;8.338;2023-11-18T11:01:41;3.00;;;2.17;;
10880;SDS011;5493;48.884;8.338;2023-11-18T11:04:08;2.70;;;2.40;;
10880;SDS011;5493;48.884;8.338;2023-11-18T11:06:40;5.57;;;2.83;;
10880;SDS011;5493;48.884;8.338;2023-11-18T11:09:08;7.13;;;4.83;;
10880;SDS011;5493;48.884;8.338;2023-11-18T11:11:43;6.90;;;5.33;;
10880;SDS011;5493;48.884;8.338;2023-11-18T11:14:15;12.33;;;5.87;;
10880;SDS011;5493;48.884;8.338;2023-11-18T11:16:45;14.63;;;9.40;;
10880;SDS011;5493;48.884;8.338;2023-11-18T11:19:16;8.20;;;5.70;;
10880;SDS011;5493;48.884;8.338;2023-11-18T11:21:49;4.73;;;3.60;;
10880;SDS011;5493;48.884;8.338;2023-11-18T11:24:23;7.20;;;4.53;;
10880;SDS011;5493;48.884;8.338;2023-11-18T11:27:01;6.93;;;4.90;;
10880;SDS011;5493;48.884;8.338;2023-11-18T11:29:44;9.33;;;5.23;;
10880;SDS011;5493;48.884;8.338;2023-11-18T11:32:18;18.47;;;12.53;;
10880;SDS011;5493;48.884;8.338;2023-11-18T11:34:53;8.00;;;6.67;;
10880;SDS011;5493;48.884;8.338;2023-11-18T11:37:23;4.47;;;3.70;;
10880;SDS011;5493;48.884;8.338;2023-11-18T11:39:51;5.30;;;4.80;;
10880;SDS011;5493;48.884;8.338;2023-11-18T11:42:20;5.80;;;4.20;;
10880;SDS011;5493;48.884;8.338;2023-11-18T11:44:50;5.20;;;4.20;;
10880;SDS011;5493;48.884;8.338;2023-11-18T11:47:20;7.07;;;4.30;;
10880;SDS011;5493;48.884;8.338;2023-11-18T11:49:50;7.50;;;5.03;;
10880;SDS011;5493;48.884;8.338;2023-11-18T11:52:23;6.43;;;4.17;;
10880;SDS011;5493;48.884;8.338;2023-11-18T11:54:55;11.53;;;5.50;;
10880;SDS011;5493;48.884;8.338;2023-11-18T11:57:29;9.70;;;6.10;;
10880;SDS011;5493;48.884;8.338;2023-11-18T11:59:57;6.07;;;4.10;;
10880;SDS011;5493;48.884;8.338;2023-11-18T12:02:26;11.00;;;6.13;;
10880;SDS011;5493;48.884;8.338;2023-11-18T12:04:54;17.57;;;8.07;;
10880;SDS011;5493;48.884;8.338;2023-11-18T12:07:24;14.63;;;6.47;;
10880;SDS011;5493;48.884;8.338;2023-11-18T12:09:55;5.93;;;3.30;;
10880;SDS011;5493;48.884;8.338;2023-11-18T12:12:22;9.40;;;3.70;;
10880;SDS011;5493;48.884;8.338;2023-11-18T12:14:51;6.37;;;3.50;;
10880;SDS011;5493;48.884;8.338;2023-11-18T12:17:22;4.87;;;2.87;;
10880;SDS011;5493;48.884;8.338;2023-11-18T12:19:53;8.30;;;4.43;;
10880;SDS011;5493;48.884;8.338;2023-11-18T12:22:23;5.03;;;2.70;;
10880;SDS011;5493;48.884;8.338;2023-11-18T12:28:07;6.73;;;3.07;;
10880;SDS011;5493;48.884;8.338;2023-11-18T12:30:38;4.07;;;3.10;;
10880;SDS011;5493;48.884;8.338;2023-11-18T12:33:10;4.33;;;3.43;;
10880;SDS011;5493;48.884;8.338;2023-11-18T12:35:49;12.00;;;6.03;;
10880;SDS011;5493;48.884;8.338;2023-11-18T12:38:48;8.97;;;4.90;;
10880;SDS011;5493;48.884;8.338;2023-11-18T12:41:38;9.17;;;4.90;;
10880;SDS011;5493;48.884;8.338;2023-11-18T12:44:14;10.10;;;4.73;;
10880;SDS011;5493;48.884;8.338;2023-11-18T12:46:52;6.77;;;4.50;;
10880;SDS011;5493;48.884;8.338;2023-11-18T12:49:21;4.60;;;3.40;;
10880;SDS011;5493;48.884;8.338;2023-11-18T12:51:49;6.50;;;3.03;;
10880;SDS011;5493;48.884;8.338;2023-11-18T12:54:17;5.00;;;2.70;;
10880;SDS011;5493;48.884;8.338;2023-11-18T12:56:45;3.73;;;2.80;;
10880;SDS011;5493;48.884;8.338;2023-11-18T12:59:14;6.30;;;3.27;;
10880;SDS011;5493;48.884;8.338;2023-11-18T13:01:42;5.77;;;3.13;;
10880;SDS011;5493;48.884;8.338;2023-11-18T13:04:16;5.80;;;2.33;;
10880;SDS011;5493;48.884;8.338;2023-11-18T13:06:45;2.83;;;2.27;;
10880;SDS011;5493;48.884;8.338;2023-11-18T13:09:13;4.07;;;2.47;;
10880;SDS011;5493;48.884;8.338;2023-11-18T13:11:50;3.00;;;2.37;;
10880;SDS011;5493;48.884;8.338;2023-11-18T13:14:20;4.53;;;2.43;;
10880;SDS011;5493;48.884;8.338;2023-11-18T13:16:47;3.70;;;2.27;;
10880;SDS011;5493;48.884;8.338;2023-11-18T13:19:22;5.67;;;3.70;;
10880;SDS011;5493;48.884;8.338;2023-11-18T13:21:51;3.77;;;2.60;;
10880;SDS011;5493;48.884;8.338;2023-11-18T13:24:17;4.07;;;2.37;;
10880;SDS011;5493;48.884;8.338;2023-11-18T13:26:44;5.90;;;3.20;;
10880;SDS011;5493;48.884;8.338;2023-11-18T13:29:11;11.33;;;3.83;;
10880;SDS011;5493;48.884;8.338;2023-11-18T13:31:38;7.40;;;3.70;;
10880;SDS011;5493;48.884;8.338;2023-11-18T13:34:05;7.83;;;3.77;;
10880;SDS011;5493;48.884;8.338;2023-11-18T13:36:32;4.77;;;3.50;;
10880;SDS011;5493;48.884;8.338;2023-11-18T13:39:00;4.33;;;3.23;;
10880;SDS011;5493;48.884;8.338;2023-11-18T13:41:28;5.57;;;2.60;;
10880;SDS011;5493;48.884;8.338;2023-11-18T13:43:54;10.47;;;6.10;;
10880;SDS011;5493;48.884;8.338;2023-11-18T13:46:22;8.43;;;5.57;;
10880;SDS011;5493;48.884;8.338;2023-11-18T13:48:49;8.47;;;4.67;;
10880;SDS011;5493;48.884;8.338;2023-11-18T13:51:16;5.10;;;3.90;;
10880;SDS011;5493;48.884;8.338;2023-11-18T13:53:44;5.80;;;3.40;;
10880;SDS011;5493;48.884;8.338;2023-11-18T13:56:13;5.43;;;3.73;;
10880;SDS011;5493;48.884;8.338;2023-11-18T13:58:41;8.07;;;4.40;;
10880;SDS011;5493;48.884;8.338;2023-11-18T14:01:10;5.33;;;3.23;;
10880;SDS011;5493;48.884;8.338;2023-11-18T14:03:39;4.17;;;3.03;;
10880;SDS011;5493;48.884;8.338;2023-11-18T14:06:09;3.90;;;3.17;;
10880;SDS011;5493;48.884;8.338;2023-11-18T14:08:36;5.27;;;3.00;;
10880;SDS011;5493;48.884;8.338;2023-11-18T14:11:03;4.37;;;3.30;;
10880;SDS011;5493;48.884;8.338;2023-11-18T14:13:31;4.03;;;3.03;;
10880;SDS011;5493;48.884;8.338;2023-11-18T14:16:00;4.60;;;3.07;;
10880;SDS011;5493;48.884;8.338;2023-11-18T14:18:26;9.53;;;3.77;;
10880;SDS011;5493;48.884;8.338;2023-11-18T14:20:53;8.57;;;3.97;;
10880;SDS011;5493;48.884;8.338;2023-11-18T14:23:20;8.47;;;4.23;;
10880;SDS011;5493;48.884;8.338;2023-11-18T14:25:48;6.17;;;3.20;;
10880;SDS011;5493;48.884;8.338;2023-11-18T14:28:14;6.70;;;3.00;;
10880;SDS011;5493;48.884;8.338;2023-11-18T14:30:42;5.77;;;2.90;;
10880;SDS011;5493;48.884;8.338;2023-11-18T14:33:09;3.80;;;3.30;;
10880;SDS011;5493;48.884;8.338;2023-11-18T14:35:35;3.70;;;2.67;;
10880;SDS011;5493;48.884;8.338;2023-11-18T14:38:02;5.33;;;2.57;;
10880;SDS011;5493;48.884;8.338;2023-11-18T14:40:30;4.10;;;3.20;;
10880;SDS011;5493;48.884;8.338;2023-11-18T14:42:57;4.43;;;2.93;;
10880;SDS011;5493;48.884;8.338;2023-11-18T14:45:23;4.27;;;2.60;;
10880;SDS011;5493;48.884;8.338;2023-11-18T14:47:51;3.53;;;2.37;;
10880;SDS011;5493;48.884;8.338;2023-11-18T14:50:21;4.17;;;2.63;;
10880;SDS011;5493;48.884;8.338;2023-11-18T14:52:49;3.57;;;2.77;;
10880;SDS011;5493;48.884;8.338;2023-11-18T14:55:16;5.70;;;3.10;;
10880;SDS011;5493;48.884;8.338;2023-11-18T14:57:43;4.63;;;3.17;;
10880;SDS011;5493;48.884;8.338;2023-11-18T15:00:12;3.60;;;2.63;;
10880;SDS011;5493;48.884;8.338;2023-11-18T15:02:44;5.20;;;3.50;;
10880;SDS011;5493;48.884;8.338;2023-11-18T15:05:13;5.80;;;3.27;;
10880;SDS011;5493;48.884;8.338;2023-11-18T15:07:43;4.27;;;3.20;;
10880;SDS011;5493;48.884;8.338;2023-11-18T15:10:10;4.37;;;3.03;;